Skip Menu |
 

This queue is for tickets about the Geo-WeatherNWS CPAN distribution.

Report information
The Basics
Id: 81473
Status: rejected
Priority: 0/
Queue: Geo-WeatherNWS

People
Owner: BOBERNST [...] cpan.org
Requestors: NEILB [...] cpan.org
Cc:
AdminCc:

Bug Information
Severity: Unimportant
Broken in: (no value)
Fixed in: (no value)



Subject: Put 'USA' in the abstract
Download (untitled) / with headers
text/plain 267b
How about changing the abstract from: A simple way to get current weather data from the NWS To the following: get current weather data for the USA from the NWS To make it clear that this isn't a general service for getting weather data, but just for the USA.
Download (untitled) / with headers
text/plain 589b
This software isn't USA specific. For example, these three reports: MMCB, Cuernavaca, Mexico 2012/11/28 00:47 MMCB 280047Z 35006KT 10SM FEW100 SCT200 22/03 A3015 RMK 8/051 Temperature is 72 degrees Air Pressure is 30.15 inches Conditions Fair VIJP, Jaipur, India 2012/11/28 01:30 VIJP 280130Z 00000KT 2000 FU SCT100 13/05 Q1016 NOSIG Temperature is 55 degrees Air Pressure is 30.00 inches Conditions Smoke EBBR, Brussels, Belgium 2012/11/28 01:20 EBBR 280120Z 23002KT 9999 SCT034 05/04 Q1006 NOSIG Temperature is 41 degrees Air Pressure is 29.71 inches Conditions Partly Cloudy
Download (untitled) / with headers
text/plain 159b
Ah, sorry about the bogus report then. I looked at the NWS website, and it seemed to suggest that it was for the USA only. Should've looked more closely ;-)
No problem, thanks for the suggestion. Perhaps the examples should include a non-USA example.


This service is sponsored and maintained by Best Practical Solutions and runs on Perl.org infrastructure.

Please report any issues with rt.cpan.org to rt-cpan-admin@bestpractical.com.